地図

経路データ

SID SEASON NUMBER BASIN SUBBASIN NAME ISO_TIME NATURE LAT LON WMO_WIND WMO_PRES WMO_AGENCY TRACK_TYPE DIST2LAND LANDFALL IFLAG USA_AGENCY USA_ATCF_ID USA_LAT USA_LON USA_RECORD USA_STATUS USA_WIND USA_PRES USA_SSHS USA_R34_NE USA_R34_SE USA_R34_SW USA_R34_NW USA_R50_NE USA_R50_SE USA_R50_SW USA_R50_NW USA_R64_NE USA_R64_SE USA_R64_SW USA_R64_NW USA_POCI USA_ROCI USA_RMW USA_EYE TOKYO_LAT TOKYO_LON TOKYO_GRADE TOKYO_WIND TOKYO_PRES TOKYO_R50_DIR TOKYO_R50_LONG TOKYO_R50_SHORT TOKYO_R30_DIR TOKYO_R30_LONG TOKYO_R30_SHORT TOKYO_LAND CMA_LAT CMA_LON CMA_CAT CMA_WIND CMA_PRES HKO_LAT HKO_LON HKO_CAT HKO_WIND HKO_PRES NEWDELHI_LAT NEWDELHI_LON NEWDELHI_GRADE NEWDELHI_WIND NEWDELHI_PRES NEWDELHI_CI NEWDELHI_DP NEWDELHI_POCI REUNION_LAT REUNION_LON REUNION_TYPE REUNION_WIND REUNION_PRES REUNION_TNUM REUNION_CI REUNION_RMW REUNION_R34_NE REUNION_R34_SE REUNION_R34_SW REUNION_R34_NW REUNION_R50_NE REUNION_R50_SE REUNION_R50_SW REUNION_R50_NW REUNION_R64_NE REUNION_R64_SE REUNION_R64_SW REUNION_R64_NW BOM_LAT BOM_LON BOM_TYPE BOM_WIND BOM_PRES BOM_TNUM BOM_CI BOM_RMW BOM_R34_NE BOM_R34_SE BOM_R34_SW BOM_R34_NW BOM_R50_NE BOM_R50_SE BOM_R50_SW BOM_R50_NW BOM_R64_NE BOM_R64_SE BOM_R64_SW BOM_R64_NW BOM_ROCI BOM_POCI BOM_EYE BOM_POS_METHOD BOM_PRES_METHOD NADI_LAT NADI_LON NADI_CAT NADI_WIND NADI_PRES WELLINGTON_LAT WELLINGTON_LON WELLINGTON_WIND WELLINGTON_PRES DS824_LAT DS824_LON DS824_STAGE DS824_WIND DS824_PRES TD9636_LAT TD9636_LON TD9636_STAGE TD9636_WIND TD9636_PRES TD9635_LAT TD9635_LON TD9635_WIND TD9635_PRES TD9635_ROCI NEUMANN_LAT NEUMANN_LON NEUMANN_CLASS NEUMANN_WIND NEUMANN_PRES MLC_LAT MLC_LON MLC_CLASS MLC_WIND MLC_PRES USA_GUST BOM_GUST BOM_GUST_PER REUNION_GUST REUNION_GUST_PER USA_SEAHGT USA_SEARAD_NE USA_SEARAD_SE USA_SEARAD_SW USA_SEARAD_NW STORM_SPEED STORM_DIR
1956183N19088 1956 55 NI BB NOT_NAMED 1956-06-30 18:00:00 TS 18.6000 87.6000 main 200 200 O________O____ jtwc_io IO071956 18.6000 87.6000 -1 18.6000 87.6000 TC 1 69
1956183N19088 1956 55 NI BB NOT_NAMED 1956-06-30 21:00:00 TS 18.6200 87.6575 main 207 199 P________P____ IO071956 18.6200 87.6575 -1 18.6200 87.6575 TC 1 43
1956183N19088 1956 55 NI BB NOT_NAMED 1956-07-01 00:00:00 TS 18.7000 87.7000 main 199 183 O________O____ jtwc_io IO071956 18.7000 87.7000 -1 18.7000 87.7000 TC 25 3 12
1956183N19088 1956 55 NI BB NOT_NAMED 1956-07-01 03:00:00 TS 18.8800 87.7133 main 183 169 P________PO___ IO071956 18.8775 87.7150 -1 18.8775 87.7150 TC 25 18.9000 87.7000 1 4 0
1956183N19088 1956 55 NI BB NOT_NAMED 1956-07-01 06:00:00 TS 19.1000 87.6931 main 169 153 O________OP___ jtwc_io IO071956 19.1000 87.7000 -1 19.1000 87.7000 TC 25 19.1000 87.6656 1 4 352
1956183N19088 1956 55 NI BB NOT_NAMED 1956-07-01 09:00:00 TS 19.3000 87.6541 main 153 129 P________PP___ IO071956 19.3000 87.6650 -1 19.3000 87.6650 TC 25 19.3000 87.6249 1 4 347
1956183N19088 1956 55 NI BB NOT_NAMED 1956-07-01 12:00:00 TS 19.5000 87.5906 main 129 107 O________OP___ jtwc_io IO071956 19.5000 87.6000 -1 19.5000 87.6000 TC 25 19.5000 87.5718 1 4 341
1956183N19088 1956 55 NI BB NOT_NAMED 1956-07-01 15:00:00 TS 19.7000 87.5050 main 107 85 P________PO___ IO071956 19.7000 87.5075 -1 19.7000 87.5075 TC 25 19.7000 87.5000 1 4 336
1956183N19088 1956 55 NI BB NOT_NAMED 1956-07-01 18:00:00 TS 19.8995 87.4016 main 85 66 O________OP___ jtwc_io IO071956 19.9000 87.4000 -1 19.9000 87.4000 TC 25 19.8984 87.4048 1 4 336
1956183N19088 1956 55 NI BB NOT_NAMED 1956-07-01 21:00:00 TS 20.1058 87.3058 main 66 45 P________PP___ IO071956 20.1150 87.3150 -1 20.1150 87.3150 TC 25 20.0875 87.2876 1 4 332
1956183N19088 1956 55 NI BB NOT_NAMED 1956-07-02 00:00:00 TS 20.2859 87.1839 main 45 23 O________OP___ jtwc_io IO071956 20.3000 87.2000 -1 20.3000 87.2000 TC 25 20.2578 87.1516 1 4 318
1956183N19088 1956 55 NI BB NOT_NAMED 1956-07-02 03:00:00 TS 20.4150 87.0050 main 23 0 P________PO___ IO071956 20.4225 87.0075 -1 20.4225 87.0075 TC 25 20.4000 87.0000 1 4 302
1956183N19088 1956 55 NI BB NOT_NAMED 1956-07-02 06:00:00 TS 20.5026 86.8144 main 0 0 O________OP___ jtwc_io IO071956 20.5000 86.8000 -1 20.5000 86.8000 TC 25 20.5078 86.8433 1 4 294
1956183N19088 1956 55 NI BB NOT_NAMED 1956-07-02 09:00:00 TS 20.5624 86.6574 main 0 0 P________PP___ IO071956 20.5499 86.6499 -1 20.5499 86.6499 TC 25 20.5875 86.6724 1 3 291
1956183N19088 1956 55 NI BB NOT_NAMED 1956-07-02 12:00:00 TS 20.6161 86.4967 main 0 0 O________OP___ jtwc_io IO071956 20.6000 86.5000 -1 20.6000 86.5000 TC 25 20.6484 86.4902 1 4 293
1956183N19088 1956 55 NI BB NOT_NAMED 1956-07-02 15:00:00 TS 20.7000 86.3050 main 0 0 P________PO___ IO071956 20.7000 86.3075 -1 20.7000 86.3075 TC 25 20.7000 86.3000 1 4 295
1956183N19088 1956 55 NI BB NOT_NAMED 1956-07-02 18:00:00 TS 20.7884 86.1065 main 0 0 O________OP___ jtwc_io IO071956 20.8000 86.1000 -1 20.8000 86.1000 TC 25 20.7652 86.1194 1 4 292
1956183N19088 1956 55 NI BB NOT_NAMED 1956-07-02 21:00:00 TS 20.8507 85.9150 main 0 0 P________PP___ IO071956 20.8649 85.9075 -1 20.8649 85.9075 TC 25 20.8223 85.9300 1 4 285
1956183N19088 1956 55 NI BB NOT_NAMED 1956-07-03 00:00:00 TS 20.8894 85.7085 main 0 0 O________OP___ jtwc_io IO071956 20.9000 85.7000 -1 20.9000 85.7000 TC 25 20.8683 85.7256 1 4 277
1956183N19088 1956 55 NI BB NOT_NAMED 1956-07-03 03:00:00 TS 20.9050 85.4716 main 0 0 P________PO___ IO071956 20.9075 85.4575 -1 20.9075 85.4575 TC 25 20.9000 85.5000 1 5 272
1956183N19088 1956 55 NI BB NOT_NAMED 1956-07-03 06:00:00 TS 20.9062 85.2155 main 0 0 O________OP___ jtwc_io IO071956 20.9000 85.2000 -1 20.9000 85.2000 TC 25 20.9185 85.2465 1 5 270
1956183N19088 1956 55 NI BB NOT_NAMED 1956-07-03 09:00:00 TS 20.9075 84.9625 main 0 0 P________PP___ IO071956 20.8999 84.9575 -1 20.8999 84.9575 TC 25 20.9225 84.9724 1 5 270
1956183N19088 1956 55 NI BB NOT_NAMED 1956-07-03 12:00:00 TS 20.9051 84.6957 main 0 0 O________OP___ jtwc_io IO071956 20.9000 84.7000 -1 20.9000 84.7000 TC 25 20.9153 84.6872 1 5 270
1956183N19088 1956 55 NI BB NOT_NAMED 1956-07-03 15:00:00 TS 20.9050 84.4000 main 0 0 P________PO___ IO071956 20.9075 84.4000 -1 20.9075 84.4000 TC 25 20.9000 84.4000 1 6 269
1956183N19088 1956 55 NI BB NOT_NAMED 1956-07-03 18:00:00 TS 20.8918 84.1074 main 0 0 O________OP___ jtwc_io IO071956 20.9000 84.1000 -1 20.9000 84.1000 TC 25 20.8795 84.1184 1 5 265
1956183N19088 1956 55 NI BB NOT_NAMED 1956-07-03 21:00:00 TS 20.8580 83.8396 main 0 0 P________PP___ IO071956 20.8600 83.8374 -1 20.8600 83.8374 TC 25 20.8552 83.8425 1 5 261
1956183N19088 1956 55 NI BB NOT_NAMED 1956-07-04 00:00:00 TS 20.8142 83.5851 main 0 0 O________OP___ jtwc_io IO071956 20.8000 83.6000 -1 20.8000 83.6000 TC 25 20.8284 83.5703 1 5 263
1956183N19088 1956 55 NI BB NOT_NAMED 1956-07-04 03:00:00 NR 20.8000 83.3000 main 0 __________O___ IO071956 -1 TC 20.8000 83.3000 1 5 267

IBTrACS Databaseについて

本データベースは、米国NOAAが公開する1842年以降の世界の熱帯低気圧のベストトラックデータアーカイブInternational Best Track Archive for Climate Stewardship (IBTrACS)を、ウェブで閲覧しやすい形式に変換したものです。

最終更新日:2021-12-03